Time;durP1;ratioP1;P1;durP2;ratioP2;P2;SDS_P1;SDS_P2;PMS_P1;PMS_P2;Temp;Humidity;BMP_temperature;BMP_pressure;BME280_temperature;BME280_humidity;BME280_pressure;Samples;Min_cycle;Max_cycle;Signal;HPM_P1;HPM_P2
2022/06/16 00:00:29;;;;;;;3.78;2.60;;;17.30;92.40;;;;;;5020527;28;20048;-73
2022/06/16 00:02:55;;;;;;;8.38;3.55;;;17.20;92.20;;;;;;5043224;28;20037;-73
2022/06/16 00:05:25;;;;;;;5.72;2.90;;;17.10;92.60;;;;;;5033686;28;20036;-73
2022/06/16 00:07:52;;;;;;;3.47;2.53;;;17.00;93.00;;;;;;5035510;28;20032;-72
2022/06/16 00:10:20;;;;;;;5.30;3.30;;;17.10;93.30;;;;;;5051231;28;20043;-72
2022/06/16 00:12:46;;;;;;;6.00;3.00;;;17.20;92.90;;;;;;5033462;28;20069;-72
2022/06/16 00:15:19;;;;;;;7.93;3.45;;;17.30;92.80;;;;;;5033786;28;20029;-72
2022/06/16 00:17:45;;;;;;;5.03;2.92;;;17.30;92.80;;;;;;5033472;28;20050;-72
2022/06/16 00:20:12;;;;;;;3.70;2.88;;;17.20;92.80;;;;;;5044251;28;20029;-72
2022/06/16 00:22:38;;;;;;;4.93;2.63;;;17.10;93.30;;;;;;5033318;28;20467;-74
2022/06/16 00:25:06;;;;;;;5.50;2.88;;;17.00;93.70;;;;;;5033544;28;20029;-72
2022/06/16 00:27:33;;;;;;;3.75;2.90;;;16.90;93.60;;;;;;5047828;28;20479;-72
2022/06/16 00:30:00;;;;;;;5.13;2.63;;;16.70;94.10;;;;;;5032868;28;20041;-73
2022/06/16 00:32:27;;;;;;;4.60;3.08;;;16.50;94.70;;;;;;5033465;28;20390;-72
2022/06/16 00:34:53;;;;;;;4.93;3.28;;;16.40;95.30;;;;;;5039755;28;20375;-72
2022/06/16 00:37:19;;;;;;;4.47;2.88;;;16.30;95.70;;;;;;5051487;28;20374;-73
2022/06/16 00:39:46;;;;;;;4.32;3.17;;;16.30;96.00;;;;;;5032957;28;20382;-72
2022/06/16 00:42:19;;;;;;;4.50;3.03;;;16.40;96.00;;;;;;5052079;28;20057;-72
2022/06/16 00:44:50;;;;;;;5.32;3.28;;;16.60;95.70;;;;;;5042253;28;20370;-73
2022/06/16 00:47:22;;;;;;;5.93;3.50;;;16.50;95.30;;;;;;5034297;28;20022;-72
2022/06/16 00:49:53;;;;;;;6.43;2.95;;;16.40;95.70;;;;;;5043200;28;20052;-73
2022/06/16 00:52:23;;;;;;;7.45;3.17;;;16.20;96.30;;;;;;5035897;28;20512;-73
2022/06/16 00:54:53;;;;;;;4.37;3.30;;;16.20;96.70;;;;;;5035249;28;20486;-73
2022/06/16 00:57:28;;;;;;;6.03;3.40;;;16.10;96.80;;;;;;5053834;28;20733;-72
2022/06/16 00:59:57;;;;;;;4.03;3.22;;;15.90;97.40;;;;;;5032709;28;20045;-73
2022/06/16 01:02:26;;;;;;;3.92;2.80;;;15.90;97.90;;;;;;5035416;28;20051;-72
2022/06/16 01:04:52;;;;;;;4.90;3.50;;;15.80;98.20;;;;;;5034209;28;20025;-72
2022/06/16 01:07:27;;;;;;;5.03;3.85;;;15.90;98.30;;;;;;5047035;28;20045;-72
2022/06/16 01:09:55;;;;;;;6.15;3.95;;;16.00;98.10;;;;;;5019223;28;20048;-72
2022/06/16 01:15:43;;;;;;;4.47;3.65;;;16.00;98.30;;;;;;5038951;28;20037;-73
2022/06/16 01:18:28;;;;;;;5.03;3.67;;;16.10;98.40;;;;;;5037035;28;20026;-73
2022/06/16 01:21:12;;;;;;;5.40;3.63;;;15.90;99.00;;;;;;5037187;28;20037;-72
2022/06/16 01:23:50;;;;;;;7.00;3.97;;;15.70;99.40;;;;;;5035551;28;20057;-72
2022/06/16 01:26:35;;;;;;;6.80;3.45;;;15.70;99.80;;;;;;5034937;28;20029;-72
2022/06/16 01:29:19;;;;;;;5.75;3.28;;;15.70;99.80;;;;;;5032812;28;20045;-72
2022/06/16 01:32:13;;;;;;;5.80;3.88;;;15.70;99.90;;;;;;5038150;28;20049;-73
2022/06/16 01:34:49;;;;;;;5.88;3.05;;;15.60;99.90;;;;;;5036542;28;20042;-74
2022/06/16 01:37:27;;;;;;;5.97;3.40;;;15.50;99.90;;;;;;5034488;28;20049;-73
2022/06/16 01:40:26;;;;;;;5.32;3.30;;;15.40;99.90;;;;;;5033454;28;20037;-72
2022/06/16 01:43:01;;;;;;;17.55;6.38;;;15.40;99.90;;;;;;5037029;28;20398;-72
2022/06/16 01:45:30;;;;;;;5.85;3.50;;;15.50;99.90;;;;;;5049090;28;20034;-72
2022/06/16 01:47:58;;;;;;;5.45;3.60;;;15.20;99.90;;;;;;5032728;28;20044;-71
2022/06/16 01:50:35;;;;;;;5.40;3.65;;;15.00;99.90;;;;;;5033265;28;20156;-72
2022/06/16 01:53:13;;;;;;;4.55;3.47;;;15.00;99.90;;;;;;5033040;28;20282;-72
2022/06/16 01:55:47;;;;;;;5.35;3.75;;;14.90;99.90;;;;;;5033193;28;20033;-72
2022/06/16 01:58:20;;;;;;;4.90;3.20;;;15.10;99.90;;;;;;5032226;28;20049;-72
2022/06/16 02:00:51;;;;;;;6.00;3.78;;;15.10;99.90;;;;;;5039923;28;20064;-72
2022/06/16 02:03:33;;;;;;;4.73;3.83;;;15.10;99.90;;;;;;5032478;28;20367;-72
2022/06/16 02:06:20;;;;;;;5.88;4.50;;;14.90;99.90;;;;;;5031761;28;20783;-72
2022/06/16 02:08:51;;;;;;;5.53;3.97;;;14.80;99.90;;;;;;5032927;28;20041;-72
2022/06/16 02:11:20;;;;;;;;;;;14.60;99.90;;;;;;5060467;28;20053;-72
2022/06/16 02:14:06;;;;;;;5.18;3.42;;;14.60;99.90;;;;;;5031107;28;19921;-73
2022/06/16 02:16:36;;;;;;;6.93;4.57;;;14.50;99.90;;;;;;5034076;28;20033;-73
2022/06/16 02:19:11;;;;;;;5.65;3.92;;;14.50;99.90;;;;;;5035718;28;20037;-73
2022/06/16 02:21:46;;;;;;;5.65;3.40;;;14.30;99.90;;;;;;5036319;28;20045;-72
2022/06/16 02:24:15;;;;;;;5.55;3.78;;;14.30;99.90;;;;;;5035009;28;20376;-73
2022/06/16 02:26:43;;;;;;;5.47;3.92;;;14.30;99.90;;;;;;5035641;28;20052;-74
2022/06/16 02:29:37;;;;;;;7.53;4.53;;;14.40;99.90;;;;;;5036018;28;20042;-72
2022/06/16 02:32:24;;;;;;;6.70;4.07;;;14.60;99.90;;;;;;5036040;28;20049;-73
2022/06/16 02:34:55;;;;;;;4.80;3.85;;;14.60;99.90;;;;;;5036037;28;20390;-72
2022/06/16 02:37:53;;;;;;;5.53;4.13;;;14.70;99.90;;;;;;5043627;28;20032;-72
2022/06/16 02:40:44;;;;;;;8.52;4.10;;;14.70;99.90;;;;;;5049723;28;20025;-72
2022/06/16 02:43:32;;;;;;;;;;;14.60;99.90;;;;;;5047419;28;20049;-72
2022/06/16 02:46:23;;;;;;;5.95;4.13;;;14.50;99.90;;;;;;5034389;28;19909;-73
2022/06/16 02:49:14;;;;;;;5.00;4.05;;;14.60;99.90;;;;;;5036596;28;20502;-73
2022/06/16 02:52:05;;;;;;;6.78;4.32;;;14.60;99.90;;;;;;5055336;28;20414;-73
2022/06/16 02:54:40;;;;;;;6.68;3.80;;;14.50;99.90;;;;;;5036697;28;20045;-72
2022/06/16 02:57:12;;;;;;;6.82;4.00;;;14.30;99.90;;;;;;5036511;28;20041;-72
2022/06/16 02:59:54;;;;;;;6.55;4.05;;;14.20;99.90;;;;;;5046540;28;20036;-74
2022/06/16 03:02:24;;;;;;;9.52;4.70;;;14.20;99.90;;;;;;5035787;28;20455;-73
2022/06/16 03:04:56;;;;;;;8.52;5.05;;;14.10;99.90;;;;;;5035441;28;20042;-73
2022/06/16 03:07:25;;;;;;;8.75;4.50;;;14.10;99.90;;;;;;5054590;28;20041;-73
2022/06/16 03:13:03;;;;;;;6.22;4.72;;;14.30;99.90;;;;;;5052838;28;20064;-72
2022/06/16 03:15:30;;;;;;;6.68;4.32;;;14.30;99.90;;;;;;5050609;28;20041;-72
2022/06/16 03:17:56;;;;;;;6.45;4.43;;;14.50;99.90;;;;;;5051699;28;20044;-73
2022/06/16 03:20:23;;;;;;;6.28;4.50;;;14.50;99.90;;;;;;5035668;28;20050;-72
2022/06/16 03:22:50;;;;;;;6.53;4.57;;;14.50;99.90;;;;;;5035356;28;20352;-72
2022/06/16 03:25:16;;;;;;;6.85;4.90;;;14.50;99.90;;;;;;5051751;28;20490;-72
2022/06/16 03:27:43;;;;;;;5.97;4.03;;;14.60;99.90;;;;;;5017406;28;20041;-73
2022/06/16 03:30:11;;;;;;;6.95;4.50;;;14.60;99.90;;;;;;5051891;28;20060;-73
2022/06/16 03:32:37;;;;;;;6.22;4.72;;;14.70;99.90;;;;;;5035664;28;20037;-73
2022/06/16 03:35:05;;;;;;;8.52;4.57;;;14.80;99.90;;;;;;5034484;28;20447;-73
2022/06/16 03:37:32;;;;;;;6.22;4.35;;;14.80;99.90;;;;;;5050399;28;20041;-73
2022/06/16 03:40:04;;;;;;;9.18;4.60;;;14.90;99.90;;;;;;5051352;28;20045;-73
2022/06/16 03:42:30;;;;;;;5.22;3.90;;;14.90;99.90;;;;;;5051718;28;20050;-73
2022/06/16 03:44:58;;;;;;;6.28;4.07;;;15.00;99.90;;;;;;5055297;28;20041;-73
2022/06/16 03:47:25;;;;;;;6.35;4.55;;;15.00;99.90;;;;;;5039363;28;20042;-73
2022/06/16 03:49:53;;;;;;;5.20;3.85;;;15.00;99.90;;;;;;5035605;28;20048;-73
2022/06/16 03:52:20;;;;;;;6.03;3.95;;;15.10;99.90;;;;;;5032723;28;20046;-73
2022/06/16 03:54:52;;;;;;;6.95;4.30;;;15.20;99.90;;;;;;5048592;28;20044;-73
2022/06/16 03:57:18;;;;;;;6.32;4.22;;;15.20;99.90;;;;;;5050015;28;20049;-73
2022/06/16 03:59:45;;;;;;;4.68;3.08;;;15.30;99.90;;;;;;5050858;28;20051;-75
2022/06/16 04:02:23;;;;;;;5.10;3.95;;;15.30;99.90;;;;;;5048510;28;20044;-72
2022/06/16 04:04:50;;;;;;;4.75;3.67;;;15.40;99.90;;;;;;5032374;28;20052;-73
2022/06/16 04:07:17;;;;;;;4.93;3.55;;;15.40;99.90;;;;;;5033127;28;20390;-72
2022/06/16 04:10:05;;;;;;;5.72;3.40;;;15.50;99.90;;;;;;5032551;28;20463;-72
2022/06/16 04:12:34;;;;;;;4.50;3.75;;;15.60;99.90;;;;;;5031737;28;20053;-72
2022/06/16 04:15:01;;;;;;;4.00;3.28;;;15.70;99.90;;;;;;5048110;28;20042;-72
2022/06/16 04:17:29;;;;;;;4.80;3.65;;;15.80;99.90;;;;;;5032158;28;20053;-73
2022/06/16 04:20:14;;;;;;;6.13;3.72;;;16.00;99.90;;;;;;5047968;28;20411;-73
2022/06/16 04:22:55;;;;;;;5.00;4.00;;;16.60;99.90;;;;;;5031388;28;20052;-73
2022/06/16 04:25:30;;;;;;;9.37;3.63;;;17.70;99.90;;;;;;5031536;28;20042;-73
2022/06/16 04:28:04;;;;;;;4.18;3.20;;;18.40;97.40;;;;;;5031707;28;20042;-73
2022/06/16 04:30:34;;;;;;;6.47;3.03;;;19.00;95.70;;;;;;5031673;28;20414;-73
2022/06/16 04:33:01;;;;;;;7.15;3.30;;;19.60;93.30;;;;;;5031363;28;20049;-73
2022/06/16 04:35:29;;;;;;;6.85;3.08;;;19.80;92.20;;;;;;5031796;28;20517;-73
2022/06/16 04:38:04;;;;;;;3.45;2.72;;;20.00;91.30;;;;;;5043219;28;20037;-73
2022/06/16 04:40:32;;;;;;;4.55;2.92;;;20.20;90.40;;;;;;5031211;28;20037;-73
2022/06/16 04:43:17;;;;;;;4.35;2.85;;;20.60;88.90;;;;;;5031408;28;20064;-72
2022/06/16 04:45:51;;;;;;;3.92;2.95;;;20.90;86.30;;;;;;5035120;28;20048;-73
2022/06/16 04:48:22;;;;;;;;;;;20.90;85.00;;;;;;5046570;28;20030;-73
2022/06/16 04:50:48;;;;;;;6.72;3.15;;;21.00;85.30;;;;;;5033895;28;20393;-73
2022/06/16 04:53:21;;;;;;;4.03;2.67;;;21.30;83.00;;;;;;5049926;28;20044;-73
2022/06/16 04:56:01;;;;;;;5.00;2.33;;;21.40;80.40;;;;;;5041666;28;20049;-72
2022/06/16 04:58:59;;;;;;;;;;;21.30;79.90;;;;;;5041356;28;20398;-72
2022/06/16 05:01:28;;;;;;;7.00;2.35;;;22.00;76.90;;;;;;5041011;28;19916;-73
2022/06/16 05:04:08;;;;;;;4.28;1.77;;;22.10;75.40;;;;;;5042101;28;20041;-74
2022/06/16 05:06:55;;;;;;;3.63;2.00;;;21.40;76.30;;;;;;5031214;28;20041;-73
2022/06/16 05:09:42;;;;;;;4.07;2.25;;;20.60;80.20;;;;;;5039464;28;20041;-73
2022/06/16 05:12:26;;;;;;;2.65;1.98;;;20.10;82.00;;;;;;5033300;28;20060;-72
2022/06/16 05:15:05;;;;;;;2.90;2.10;;;20.40;82.40;;;;;;5049457;28;20063;-72
2022/06/16 05:18:12;;;;;;;5.15;2.05;;;21.50;78.00;;;;;;5021335;28;20053;-72
2022/06/16 05:20:44;;;;;;;4.45;1.90;;;22.40;75.10;;;;;;4993878;28;20058;-72
2022/06/16 05:23:40;;;;;;;2.83;1.60;;;22.80;73.00;;;;;;4985100;28;20520;-73
2022/06/16 05:26:20;;;;;;;3.40;2.10;;;22.20;74.10;;;;;;5030634;28;20041;-72
2022/06/16 05:28:50;;;;;;;3.95;2.03;;;22.20;74.30;;;;;;5047507;28;20491;-71
2022/06/16 05:31:29;;;;;;;3.05;2.10;;;22.50;73.50;;;;;;5049694;28;20041;-72
2022/06/16 05:34:14;;;;;;;3.95;2.20;;;22.30;73.60;;;;;;5051225;28;20048;-72
2022/06/16 05:36:47;;;;;;;4.57;2.05;;;22.50;72.80;;;;;;5047202;28;20379;-73
2022/06/16 05:39:29;;;;;;;3.83;2.28;;;22.10;73.60;;;;;;5038246;28;20037;-72
2022/06/16 05:42:13;;;;;;;2.42;1.77;;;22.30;72.70;;;;;;5039013;28;20398;-73
2022/06/16 05:45:12;;;;;;;7.63;1.83;;;22.30;72.40;;;;;;5020652;28;20042;-72
2022/06/16 05:47:51;;;;;;;3.70;1.40;;;22.40;70.70;;;;;;5045085;28;20042;-73
2022/06/16 05:50:18;;;;;;;4.70;2.20;;;22.50;70.40;;;;;;5041329;28;20034;-72
2022/06/16 05:52:45;;;;;;;3.00;1.67;;;22.90;68.60;;;;;;5053487;28;20393;-73
2022/06/16 05:55:33;;;;;;;4.20;2.08;;;23.30;67.50;;;;;;5034513;28;20049;-73
2022/06/16 05:58:01;;;;;;;5.95;2.58;;;23.10;67.60;;;;;;5034292;28;20026;-73
2022/06/16 06:00:30;;;;;;;4.75;1.73;;;23.30;65.20;;;;;;5034745;28;20045;-71
2022/06/16 06:02:58;;;;;;;2.47;1.52;;;22.90;66.10;;;;;;5034469;28;20041;-72
2022/06/16 06:05:28;;;;;;;4.40;2.40;;;23.10;65.70;;;;;;5034820;28;20052;-73
2022/06/16 06:16:25;;;;;;;6.13;1.73;;;22.40;66.20;;;;;;5035896;28;20068;-72
2022/06/16 06:18:53;;;;;;;3.13;1.75;;;22.00;67.10;;;;;;5034164;28;20041;-73
2022/06/16 06:24:09;;;;;;;5.78;2.03;;;22.70;65.50;;;;;;5046037;28;20481;-73
2022/06/16 06:26:35;;;;;;;2.15;1.48;;;23.20;64.70;;;;;;5050426;28;20060;-73
2022/06/16 06:29:02;;;;;;;5.18;2.17;;;23.80;62.70;;;;;;5052403;28;20485;-72
2022/06/16 06:31:28;;;;;;;6.75;1.50;;;23.60;62.20;;;;;;5039436;28;20033;-72
2022/06/16 06:33:54;;;;;;;2.88;1.77;;;23.20;63.90;;;;;;5036491;28;20045;-72
2022/06/16 06:36:21;;;;;;;2.10;1.60;;;22.50;64.80;;;;;;5042336;28;20037;-72
2022/06/16 06:38:47;;;;;;;2.85;1.88;;;22.30;65.90;;;;;;5034965;28;20029;-72
2022/06/16 06:41:14;;;;;;;2.92;1.88;;;22.70;64.70;;;;;;5034574;28;20040;-72
2022/06/16 06:43:43;;;;;;;3.45;1.88;;;23.40;65.50;;;;;;5033418;28;20045;-73
2022/06/16 06:46:10;;;;;;;2.60;1.50;;;23.50;62.30;;;;;;5034337;28;20036;-74
2022/06/16 06:48:37;;;;;;;3.47;1.63;;;23.50;62.20;;;;;;5034703;28;20049;-72
2022/06/16 06:51:03;;;;;;;3.53;1.67;;;24.00;61.50;;;;;;5034092;28;20056;-72
2022/06/16 06:53:29;;;;;;;2.30;1.40;;;24.40;60.20;;;;;;5035671;28;20033;-72
2022/06/16 06:55:56;;;;;;;2.45;1.77;;;24.80;59.90;;;;;;5044980;28;20037;-72
2022/06/16 06:58:23;;;;;;;3.25;1.40;;;24.30;60.40;;;;;;5033319;28;20042;-72
2022/06/16 07:00:53;;;;;;;1.92;1.42;;;24.70;59.60;;;;;;5034103;28;20073;-74
2022/06/16 07:03:22;;;;;;;3.55;1.58;;;24.50;59.70;;;;;;5033932;28;20041;-72
2022/06/16 07:05:48;;;;;;;3.40;1.95;;;24.60;59.70;;;;;;5034250;28;20040;-74
2022/06/16 07:08:15;;;;;;;4.40;2.60;;;24.40;59.10;;;;;;5055278;28;20029;-73
2022/06/16 07:10:41;;;;;;;4.40;1.80;;;23.20;60.90;;;;;;5036447;28;20041;-72
2022/06/16 07:13:07;;;;;;;5.38;2.00;;;22.90;61.90;;;;;;5046111;28;20076;-72
2022/06/16 07:15:34;;;;;;;2.92;1.65;;;23.30;60.90;;;;;;5033941;28;20041;-72
2022/06/16 07:18:03;;;;;;;3.78;2.08;;;23.70;60.10;;;;;;5033627;28;20041;-73
2022/06/16 07:20:30;;;;;;;4.18;1.52;;;23.90;60.00;;;;;;5032944;28;20497;-73
2022/06/16 07:22:56;;;;;;;4.82;1.50;;;24.30;58.80;;;;;;5033489;28;20037;-73
2022/06/16 07:25:22;;;;;;;3.38;1.75;;;24.00;58.60;;;;;;5033773;28;20037;-73
2022/06/16 07:27:50;;;;;;;6.35;1.88;;;24.30;58.50;;;;;;5032799;28;20030;-73
2022/06/16 07:30:19;;;;;;;4.03;1.40;;;24.80;58.00;;;;;;5033742;28;20037;-73
2022/06/16 07:32:46;;;;;;;3.03;1.50;;;24.60;58.10;;;;;;5044286;28;20038;-73
2022/06/16 07:35:15;;;;;;;4.55;1.85;;;23.90;59.00;;;;;;5033542;28;20044;-73
2022/06/16 07:37:42;;;;;;;4.82;1.60;;;23.70;59.30;;;;;;5046340;28;20040;-73
2022/06/16 07:40:09;;;;;;;4.20;1.83;;;23.80;59.50;;;;;;5036236;28;20387;-72
2022/06/16 07:42:36;;;;;;;2.78;1.63;;;24.20;59.50;;;;;;5033539;28;20494;-73
2022/06/16 07:45:04;;;;;;;2.85;1.80;;;24.30;59.10;;;;;;5033416;28;20459;-73
2022/06/16 07:47:30;;;;;;;3.45;1.70;;;24.40;58.80;;;;;;5033450;28;20379;-74
2022/06/16 07:49:56;;;;;;;5.55;1.85;;;25.50;57.60;;;;;;5040420;28;20111;-73
2022/06/16 07:52:23;;;;;;;2.72;1.85;;;25.90;56.70;;;;;;5049671;28;20033;-74
2022/06/16 07:54:49;;;;;;;3.03;1.85;;;25.00;57.50;;;;;;5037713;28;20386;-73
2022/06/16 07:57:16;;;;;;;5.97;1.95;;;24.90;58.10;;;;;;5044038;28;20048;-72
2022/06/16 07:59:44;;;;;;;5.32;2.17;;;25.00;58.10;;;;;;5046686;28;20036;-72
2022/06/16 08:02:10;;;;;;;2.67;1.67;;;25.60;58.30;;;;;;5033331;28;20364;-73
2022/06/16 08:04:36;;;;;;;4.03;1.40;;;25.80;55.70;;;;;;5052675;28;20441;-72
2022/06/16 08:07:03;;;;;;;3.30;1.58;;;25.60;58.90;;;;;;5034498;28;20026;-72
2022/06/16 08:09:31;;;;;;;4.97;1.77;;;26.30;56.00;;;;;;5032718;28;20037;-72
2022/06/16 08:12:03;;;;;;;4.88;1.83;;;26.40;54.80;;;;;;5032138;28;20052;-73
2022/06/16 08:14:30;;;;;;;2.63;1.45;;;25.90;56.20;;;;;;5039714;28;20045;-72
2022/06/16 08:16:58;;;;;;;2.42;1.33;;;25.70;56.00;;;;;;5032959;28;20041;-72
2022/06/16 08:19:25;;;;;;;3.90;1.67;;;25.80;57.10;;;;;;5031601;28;20026;-73
2022/06/16 08:21:51;;;;;;;4.95;1.90;;;25.60;56.30;;;;;;5032685;28;20128;-72
2022/06/16 08:24:18;;;;;;;3.78;1.92;;;25.80;56.00;;;;;;5033916;28;20033;-72
2022/06/16 08:26:44;;;;;;;2.65;1.33;;;26.20;55.20;;;;;;5049595;28;20049;-72
2022/06/16 08:29:13;;;;;;;4.20;1.67;;;26.20;55.10;;;;;;5032253;28;20040;-73
2022/06/16 08:31:39;;;;;;;3.03;1.45;;;26.10;54.60;;;;;;5032202;28;20040;-73
2022/06/16 08:34:06;;;;;;;3.40;1.60;;;26.30;55.60;;;;;;5047066;28;20497;-72
2022/06/16 08:36:33;;;;;;;3.83;1.90;;;25.80;55.30;;;;;;5035880;28;20036;-72
2022/06/16 08:39:00;;;;;;;4.15;1.35;;;25.80;54.40;;;;;;5030911;28;20471;-72
2022/06/16 08:41:34;;;;;;;3.40;1.58;;;26.30;54.20;;;;;;5048365;28;20037;-73
2022/06/16 08:44:36;;;;;;;4.22;1.75;;;26.30;53.70;;;;;;5046819;28;20044;-72
2022/06/16 08:47:31;;;;;;;3.53;1.70;;;25.90;53.50;;;;;;5031642;28;20040;-72
2022/06/16 08:50:03;;;;;;;4.60;1.77;;;26.00;53.30;;;;;;5034490;28;20041;-72
2022/06/16 08:52:53;;;;;;;4.80;1.48;;;26.30;52.80;;;;;;5034106;28;20033;-72
2022/06/16 08:55:35;;;;;;;3.28;1.30;;;26.30;52.60;;;;;;5037841;28;20025;-73
2022/06/16 08:58:18;;;;;;;3.72;1.40;;;26.80;51.60;;;;;;5045467;28;20066;-72
2022/06/16 09:00:53;;;;;;;7.57;1.55;;;26.60;51.80;;;;;;5031978;28;20033;-72
2022/06/16 09:03:43;;;;;;;4.15;1.65;;;26.80;52.40;;;;;;5032367;28;20470;-73
2022/06/16 09:06:27;;;;;;;2.10;1.23;;;27.00;51.50;;;;;;5044496;28;20029;-73
2022/06/16 09:10:14;;;;;;;3.08;1.85;;;27.30;50.90;;;;;;5046174;28;20045;-74
2022/06/16 09:12:21;;;;;;;4.63;1.65;;;27.60;49.90;;;;;;5031481;28;20056;-73
2022/06/16 09:15:11;;;;;;;5.15;1.30;;;27.40;50.20;;;;;;5032168;28;20069;-74
2022/06/16 09:17:51;;;;;;;4.13;1.45;;;27.50;50.90;;;;;;5032054;28;20037;-72
2022/06/16 09:20:33;;;;;;;2.17;1.50;;;27.70;50.10;;;;;;5031992;28;20021;-71
2022/06/16 09:23:08;;;;;;;7.95;2.10;;;28.00;50.60;;;;;;5031573;28;20053;-72
2022/06/16 09:25:43;;;;;;;4.47;1.65;;;27.70;49.80;;;;;;5034196;28;20029;-71
2022/06/16 09:28:16;;;;;;;4.35;1.40;;;26.90;51.20;;;;;;5052887;28;20044;-71
2022/06/16 09:30:44;;;;;;;6.18;1.33;;;27.00;50.00;;;;;;5036182;28;20033;-73
2022/06/16 09:33:17;;;;;;;2.95;1.17;;;26.90;50.20;;;;;;5035383;28;20033;-71
2022/06/16 09:35:52;;;;;;;3.17;1.40;;;27.00;49.00;;;;;;5035875;28;20053;-72
2022/06/16 09:38:24;;;;;;;2.47;1.17;;;27.10;49.20;;;;;;5047039;28;20108;-71
2022/06/16 09:43:56;;;;;;;3.42;1.70;;;27.70;48.80;;;;;;5035363;28;20044;-73
2022/06/16 09:46:28;;;;;;;3.20;1.33;;;27.70;48.80;;;;;;5035583;28;20458;-71
2022/06/16 09:49:06;;;;;;;7.07;1.70;;;27.80;47.90;;;;;;5052936;28;20037;-72
2022/06/16 09:51:42;;;;;;;3.35;1.15;;;27.80;48.30;;;;;;5051087;28;20383;-73
2022/06/16 09:54:20;;;;;;;3.55;1.67;;;27.90;48.30;;;;;;5043210;28;20143;-71
2022/06/16 09:56:53;;;;;;;7.13;1.67;;;27.90;47.90;;;;;;5040824;28;20470;-71
2022/06/16 09:59:32;;;;;;;3.13;1.10;;;28.00;48.40;;;;;;5037226;28;20474;-71
2022/06/16 10:02:04;;;;;;;;;;;28.60;47.30;;;;;;5035509;28;20395;-71
2022/06/16 10:04:30;;;;;;;3.08;1.98;;;28.50;48.70;;;;;;5051839;28;19909;-71
2022/06/16 10:07:24;;;;;;;6.85;2.00;;;28.30;47.10;;;;;;5036650;28;20036;-71
2022/06/16 10:10:05;;;;;;;7.43;2.13;;;27.90;48.40;;;;;;5034278;28;20040;-71
2022/06/16 10:12:40;;;;;;;3.40;1.77;;;28.00;48.10;;;;;;5034850;28;20038;-71
2022/06/16 10:15:45;;;;;;;4.68;1.95;;;27.80;48.90;;;;;;5035077;28;20040;-71
2022/06/16 10:18:11;;;;;;;4.60;1.83;;;27.20;48.00;;;;;;5033947;28;20052;-71
2022/06/16 10:20:39;;;;;;;3.03;2.17;;;27.50;48.30;;;;;;5048129;28;20033;-71
2022/06/16 10:23:31;;;;;;;3.20;1.80;;;27.60;48.70;;;;;;5041304;28;20037;-71
2022/06/16 10:26:01;;;;;;;4.35;1.58;;;28.00;48.80;;;;;;5034434;28;20025;-73
2022/06/16 10:28:31;;;;;;;4.43;2.10;;;28.00;49.00;;;;;;5046019;28;20045;-73
2022/06/16 10:31:04;;;;;;;3.47;1.73;;;27.50;48.30;;;;;;5040774;28;20041;-72
2022/06/16 10:33:36;;;;;;;3.05;2.10;;;27.40;49.30;;;;;;5046350;28;20040;-71
2022/06/16 10:36:07;;;;;;;2.45;1.65;;;27.80;48.10;;;;;;5034984;28;20387;-72
2022/06/16 10:38:33;;;;;;;5.32;2.30;;;27.80;48.80;;;;;;5049281;28;20037;-72
2022/06/16 10:41:06;;;;;;;2.78;1.55;;;28.10;49.00;;;;;;5045231;28;20036;-72
2022/06/16 10:43:38;;;;;;;3.00;2.00;;;28.00;47.90;;;;;;5042630;28;20049;-74
2022/06/16 10:46:15;;;;;;;4.97;1.92;;;27.90;48.20;;;;;;5034581;28;20025;-72
2022/06/16 10:48:51;;;;;;;6.03;1.60;;;28.20;48.30;;;;;;5034798;28;20033;-71
2022/06/16 10:51:28;;;;;;;3.33;1.40;;;28.00;47.10;;;;;;5034208;28;20037;-72
2022/06/16 10:54:11;;;;;;;2.97;1.58;;;27.70;46.50;;;;;;5034659;28;20497;-72
2022/06/16 10:56:39;;;;;;;3.25;1.38;;;28.00;45.80;;;;;;5034230;28;20033;-72
2022/06/16 10:59:17;;;;;;;4.63;2.22;;;28.10;45.50;;;;;;5033685;28;20033;-73
2022/06/16 11:01:56;;;;;;;2.80;1.50;;;28.00;45.00;;;;;;5034465;28;20033;-72
2022/06/16 11:04:25;;;;;;;6.28;1.73;;;27.80;45.40;;;;;;5034182;28;20328;-72
2022/06/16 11:06:56;;;;;;;3.13;1.57;;;28.20;45.60;;;;;;5034488;28;20029;-72
2022/06/16 11:09:32;;;;;;;4.05;2.08;;;28.00;46.10;;;;;;5048611;28;20283;-72
2022/06/16 11:12:01;;;;;;;3.35;1.90;;;28.40;45.50;;;;;;5037199;28;20037;-72
2022/06/16 11:14:32;;;;;;;3.10;1.60;;;28.20;44.40;;;;;;5043035;28;20052;-71
2022/06/16 11:16:59;;;;;;;2.22;1.40;;;27.90;45.70;;;;;;5035148;28;20048;-75
2022/06/16 11:19:35;;;;;;;3.88;1.17;;;28.30;45.50;;;;;;5033878;28;20040;-72
2022/06/16 11:22:26;;;;;;;1.85;1.45;;;28.40;46.30;;;;;;5033399;28;20050;-72
2022/06/16 11:25:06;;;;;;;4.72;1.80;;;28.50;44.20;;;;;;5034073;28;20040;-72
2022/06/16 11:28:12;;;;;;;2.95;1.58;;;28.20;44.70;;;;;;5034275;28;20037;-72
2022/06/16 11:30:47;;;;;;;5.88;1.85;;;28.30;44.70;;;;;;5032975;28;20042;-72
2022/06/16 11:37:12;;;;;;;6.82;2.45;;;28.70;44.20;;;;;;5032988;28;20733;-71
2022/06/16 11:40:16;;;;;;;3.88;1.80;;;28.00;44.80;;;;;;5031905;28;20052;-72
2022/06/16 11:43:06;;;;;;;4.60;1.80;;;27.80;45.30;;;;;;5033567;28;20037;-73
2022/06/16 11:45:44;;;;;;;6.50;2.05;;;28.10;45.00;;;;;;5033806;28;20025;-72
2022/06/16 11:48:20;;;;;;;4.05;1.77;;;28.50;44.30;;;;;;5037160;28;20466;-71
2022/06/16 11:51:03;;;;;;;2.63;1.38;;;28.20;44.60;;;;;;5037300;28;20029;-73
2022/06/16 11:53:57;;;;;;;2.65;1.48;;;28.40;44.50;;;;;;5037162;28;20048;-72
2022/06/16 11:56:36;;;;;;;3.60;1.65;;;28.70;44.30;;;;;;5045110;28;20033;-72
2022/06/16 11:59:11;;;;;;;3.28;1.60;;;28.80;44.30;;;;;;5033033;28;20387;-72
2022/06/16 12:01:53;;;;;;;1.98;1.35;;;28.50;43.30;;;;;;5032273;28;20037;-72
2022/06/16 12:04:49;;;;;;;4.35;1.58;;;28.70;43.50;;;;;;5032830;28;20029;-72
2022/06/16 12:07:26;;;;;;;2.15;1.00;;;28.70;43.10;;;;;;5032818;28;20026;-74
2022/06/16 12:10:02;;;;;;;3.08;1.60;;;28.60;43.10;;;;;;5031948;28;20036;-71
2022/06/16 12:13:06;;;;;;;2.00;1.60;;;28.10;43.40;;;;;;5032563;28;20505;-74
2022/06/16 12:15:50;;;;;;;1.92;1.02;;;28.30;43.10;;;;;;5027947;28;20053;-73
2022/06/16 12:18:50;;;;;;;3.58;1.30;;;28.70;42.70;;;;;;5041445;28;20041;-71
2022/06/16 12:21:23;;;;;;;3.78;1.75;;;28.90;42.90;;;;;;5031201;28;20041;-73
2022/06/16 12:24:04;;;;;;;6.72;2.10;;;29.00;41.70;;;;;;5032998;28;20052;-72
2022/06/16 12:26:56;;;;;;;1.88;1.20;;;29.00;41.80;;;;;;5047967;28;20486;-71
2022/06/16 12:29:27;;;;;;;2.58;1.27;;;28.70;42.30;;;;;;5032442;28;20466;-71
2022/06/16 12:32:06;;;;;;;1.77;1.02;;;29.00;41.60;;;;;;5043503;28;20028;-71
2022/06/16 12:35:14;;;;;;;4.45;1.42;;;29.10;41.40;;;;;;5041074;28;20045;-72
2022/06/16 12:37:59;;;;;;;6.07;1.75;;;29.10;41.30;;;;;;5033720;28;20060;-71
2022/06/16 12:40:38;;;;;;;3.25;1.15;;;29.10;41.90;;;;;;5047812;28;20034;-71
2022/06/16 12:43:11;;;;;;;2.50;1.15;;;29.00;41.30;;;;;;5032182;28;20382;-72
2022/06/16 12:45:46;;;;;;;2.00;1.33;;;28.60;42.00;;;;;;5032396;28;20036;-71
2022/06/16 12:48:16;;;;;;;2.58;1.25;;;28.80;41.90;;;;;;5032234;28;20056;-71
2022/06/16 12:50:49;;;;;;;2.50;1.13;;;29.10;41.30;;;;;;5032243;28;20471;-71
2022/06/16 12:53:27;;;;;;;3.95;2.67;;;29.10;41.50;;;;;;5032177;28;20046;-72
2022/06/16 12:56:08;;;;;;;9.77;1.25;;;29.10;41.10;;;;;;5032349;28;20051;-72
2022/06/16 12:58:49;;;;;;;2.63;1.17;;;28.80;40.40;;;;;;5032290;28;20044;-72
2022/06/16 13:01:16;;;;;;;2.92;1.00;;;28.70;40.90;;;;;;5041243;28;20032;-72
2022/06/16 13:04:02;;;;;;;1.70;1.10;;;28.90;40.60;;;;;;5031404;28;20052;-71
2022/06/16 13:06:30;;;;;;;4.32;1.30;;;28.90;40.00;;;;;;5032057;28;20382;-71
2022/06/16 13:09:00;;;;;;;4.63;1.80;;;29.10;39.60;;;;;;5045580;28;20028;-71
2022/06/16 13:11:34;;;;;;;2.50;1.42;;;29.30;39.40;;;;;;5039065;28;20052;-72
2022/06/16 13:14:19;;;;;;;2.53;1.25;;;29.30;39.30;;;;;;5031583;28;20045;-72
2022/06/16 13:16:49;;;;;;;3.38;1.05;;;29.20;39.30;;;;;;5032224;28;20136;-73
2022/06/16 13:19:19;;;;;;;;;;;29.10;38.90;;;;;;5050714;28;20029;-73
2022/06/16 13:22:06;;;;;;;2.45;1.00;;;29.20;38.30;;;;;;5032522;28;20278;-71
2022/06/16 13:24:51;;;;;;;2.35;1.00;;;29.10;37.90;;;;;;5032466;28;20037;-71
2022/06/16 13:27:55;;;;;;;3.10;1.05;;;29.10;38.30;;;;;;5039216;28;20029;-73
2022/06/16 13:30:38;;;;;;;2.42;1.27;;;29.30;38.40;;;;;;5027043;28;20040;-72
2022/06/16 13:33:32;;;;;;;2.30;1.20;;;29.10;38.10;;;;;;5027298;28;20045;-72
2022/06/16 13:36:15;;;;;;;2.38;1.00;;;29.10;38.80;;;;;;5031851;28;20036;-72
2022/06/16 13:38:44;;;;;;;1.42;0.80;;;29.30;36.50;;;;;;5031861;28;20038;-72
2022/06/16 13:41:37;;;;;;;2.75;1.20;;;29.20;36.80;;;;;;5032255;28;20037;-72
2022/06/16 13:44:16;;;;;;;2.50;0.70;;;29.40;35.10;;;;;;5031537;28;20064;-72
2022/06/16 13:46:54;;;;;;;1.63;0.75;;;29.40;33.70;;;;;;5031933;28;20034;-71
2022/06/16 13:49:53;;;;;;;1.10;0.73;;;29.30;33.20;;;;;;5031012;28;20395;-71
2022/06/16 13:52:27;;;;;;;0.90;0.55;;;29.50;33.60;;;;;;5031808;28;20512;-72